N816LP KPWM-KBTV
Flight info
| Callsign | N816LP |
|---|---|
| Flight time | 0h 46m |
| Altitude | 16000 |
| Route | KPWM MPV KBTV |
| Aircraft | B350/L-VGDW/C |
Departure
| Time | 2026-04-29 01:30 |
|---|---|
| Airport | Portland International Jetport (KPWM) |
Arrival
| Time | 2026-04-29 02:16 |
|---|---|
| Airport | Patrick Leahy Burlington International Airport (KBTV) |
| Time | Latitude | Longitude | Altitude | Speed | Heading |
|---|---|---|---|---|---|
| 2026-04-29 01:15 | 43.65001 | -70.30819 | 64 ft | 0 kts | 177° |
| 2026-04-29 01:21 | 43.65008 | -70.30820 | 58 ft | 3 kts | 177° |
| 2026-04-29 01:21 | 43.65027 | -70.30821 | 62 ft | 3 kts | 177° |
| 2026-04-29 01:21 | 43.65030 | -70.30821 | 63 ft | 0 kts | 177° |
| 2026-04-29 01:25 | 43.65029 | -70.30821 | 64 ft | 0 kts | 177° |
| 2026-04-29 01:25 | 43.65021 | -70.30808 | 64 ft | 7 kts | 96° |
| 2026-04-29 01:25 | 43.65022 | -70.30795 | 62 ft | 0 kts | 71° |
| 2026-04-29 01:26 | 43.65042 | -70.30741 | 61 ft | 11 kts | 46° |
| 2026-04-29 01:27 | 43.65092 | -70.30723 | 59 ft | 16 kts | 6° |
| 2026-04-29 01:27 | 43.65182 | -70.30745 | 59 ft | 14 kts | 339° |
| 2026-04-29 01:27 | 43.65302 | -70.30804 | 58 ft | 20 kts | 339° |
| 2026-04-29 01:27 | 43.65349 | -70.30829 | 58 ft | 0 kts | 338° |
| 2026-04-29 01:28 | 43.65403 | -70.30838 | 58 ft | 10 kts | 31° |
| 2026-04-29 01:28 | 43.65431 | -70.30765 | 58 ft | 7 kts | 65° |
| 2026-04-29 01:29 | 43.65415 | -70.30715 | 52 ft | 8 kts | 163° |
| 2026-04-29 01:29 | 43.65408 | -70.30712 | 58 ft | 0 kts | 163° |
| 2026-04-29 01:29 | 43.65132 | -70.30593 | 55 ft | 96 kts | 162° |
| 2026-04-29 01:29 | 43.64284 | -70.30251 | 203 ft | 155 kts | 164° |
| 2026-04-29 01:30 | 43.63172 | -70.29803 | 577 ft | 175 kts | 163° |
| 2026-04-29 01:30 | 43.61969 | -70.29315 | 1005 ft | 184 kts | 163° |
| 2026-04-29 01:30 | 43.60713 | -70.28847 | 1438 ft | 188 kts | 163° |
| 2026-04-29 01:30 | 43.59439 | -70.28410 | 1862 ft | 189 kts | 165° |
| 2026-04-29 01:31 | 43.58146 | -70.28640 | 2304 ft | 196 kts | 202° |
| 2026-04-29 01:31 | 43.56935 | -70.29545 | 2705 ft | 199 kts | 206° |
| 2026-04-29 01:31 | 43.55732 | -70.30515 | 3112 ft | 203 kts | 208° |
| 2026-04-29 01:31 | 43.54498 | -70.31533 | 3529 ft | 210 kts | 208° |
| 2026-04-29 01:32 | 43.53230 | -70.32582 | 3935 ft | 215 kts | 208° |
| 2026-04-29 01:32 | 43.51921 | -70.33602 | 4347 ft | 217 kts | 207° |
| 2026-04-29 01:32 | 43.50583 | -70.34597 | 4762 ft | 219 kts | 206° |
| 2026-04-29 01:32 | 43.49248 | -70.35569 | 5171 ft | 220 kts | 206° |
| 2026-04-29 01:33 | 43.47883 | -70.36545 | 5571 ft | 222 kts | 206° |
| 2026-04-29 01:33 | 43.46505 | -70.37509 | 5980 ft | 222 kts | 206° |
| 2026-04-29 01:33 | 43.45116 | -70.38460 | 6392 ft | 223 kts | 206° |
| 2026-04-29 01:33 | 43.43717 | -70.39403 | 6794 ft | 224 kts | 206° |
| 2026-04-29 01:34 | 43.42310 | -70.40344 | 7179 ft | 225 kts | 206° |
| 2026-04-29 01:34 | 43.40897 | -70.41281 | 7571 ft | 226 kts | 206° |
| 2026-04-29 01:34 | 43.39480 | -70.42214 | 7962 ft | 226 kts | 205° |
| 2026-04-29 01:34 | 43.38055 | -70.43146 | 8376 ft | 227 kts | 205° |
| 2026-04-29 01:35 | 43.36733 | -70.44297 | 8796 ft | 226 kts | 231° |
| 2026-04-29 01:35 | 43.36234 | -70.46295 | 9224 ft | 226 kts | 274° |
| 2026-04-29 01:35 | 43.36860 | -70.48227 | 9648 ft | 226 kts | 315° |
| 2026-04-29 01:35 | 43.37927 | -70.49811 | 10061 ft | 228 kts | 298° |
| 2026-04-29 01:36 | 43.38584 | -70.51796 | 10436 ft | 228 kts | 294° |
| 2026-04-29 01:36 | 43.39213 | -70.53807 | 10822 ft | 229 kts | 293° |
| 2026-04-29 01:36 | 43.39831 | -70.55799 | 11204 ft | 230 kts | 293° |
| 2026-04-29 01:36 | 43.40458 | -70.57832 | 11600 ft | 231 kts | 293° |
| 2026-04-29 01:37 | 43.41116 | -70.59852 | 12002 ft | 232 kts | 297° |
| 2026-04-29 01:37 | 43.41888 | -70.61808 | 12409 ft | 233 kts | 298° |
| 2026-04-29 01:37 | 43.42632 | -70.63791 | 12818 ft | 234 kts | 296° |
| 2026-04-29 01:37 | 43.43371 | -70.65790 | 13235 ft | 234 kts | 297° |
| 2026-04-29 01:38 | 43.44127 | -70.67784 | 13660 ft | 235 kts | 297° |
| 2026-04-29 01:38 | 43.44879 | -70.69790 | 14074 ft | 236 kts | 297° |
| 2026-04-29 01:38 | 43.45629 | -70.71796 | 14453 ft | 236 kts | 297° |
| 2026-04-29 01:38 | 43.46383 | -70.73805 | 14840 ft | 236 kts | 297° |
| 2026-04-29 01:39 | 43.47125 | -70.75789 | 15222 ft | 236 kts | 297° |
| 2026-04-29 01:39 | 43.47876 | -70.77794 | 15598 ft | 236 kts | 297° |
| 2026-04-29 01:39 | 43.48639 | -70.79834 | 15805 ft | 244 kts | 296° |
| 2026-04-29 01:39 | 43.49429 | -70.81946 | 15903 ft | 253 kts | 296° |
| 2026-04-29 01:40 | 43.50245 | -70.84132 | 15946 ft | 260 kts | 296° |
| 2026-04-29 01:40 | 43.51082 | -70.86375 | 15967 ft | 266 kts | 296° |
| 2026-04-29 01:40 | 43.51932 | -70.88658 | 15974 ft | 270 kts | 296° |
| 2026-04-29 01:40 | 43.52794 | -70.90973 | 15979 ft | 273 kts | 296° |
| 2026-04-29 01:41 | 43.53663 | -70.93306 | 15978 ft | 274 kts | 296° |
| 2026-04-29 01:41 | 43.54534 | -70.95652 | 15979 ft | 276 kts | 296° |
| 2026-04-29 01:41 | 43.55409 | -70.98008 | 15980 ft | 276 kts | 296° |
| 2026-04-29 01:41 | 43.56286 | -71.00369 | 15974 ft | 277 kts | 296° |
| 2026-04-29 01:42 | 43.57163 | -71.02737 | 15963 ft | 277 kts | 296° |
| 2026-04-29 01:42 | 43.58031 | -71.05078 | 15966 ft | 277 kts | 296° |
| 2026-04-29 01:42 | 43.58906 | -71.07444 | 15966 ft | 277 kts | 296° |
| 2026-04-29 01:42 | 43.59785 | -71.09818 | 15964 ft | 277 kts | 296° |
| 2026-04-29 01:43 | 43.60657 | -71.12177 | 15963 ft | 277 kts | 296° |
| 2026-04-29 01:43 | 43.61532 | -71.14547 | 15962 ft | 277 kts | 295° |
| 2026-04-29 01:43 | 43.62405 | -71.16912 | 15963 ft | 277 kts | 295° |
| 2026-04-29 01:43 | 43.63278 | -71.19280 | 15961 ft | 277 kts | 295° |
| 2026-04-29 01:44 | 43.64149 | -71.21645 | 15964 ft | 277 kts | 295° |
| 2026-04-29 01:44 | 43.65021 | -71.24013 | 15965 ft | 277 kts | 295° |
| 2026-04-29 01:44 | 43.65891 | -71.26382 | 15964 ft | 277 kts | 295° |
| 2026-04-29 01:44 | 43.66763 | -71.28755 | 15962 ft | 277 kts | 295° |
| 2026-04-29 01:45 | 43.67633 | -71.31123 | 15961 ft | 277 kts | 295° |
| 2026-04-29 01:45 | 43.68503 | -71.33497 | 15961 ft | 276 kts | 295° |
| 2026-04-29 01:45 | 43.69363 | -71.35840 | 15961 ft | 276 kts | 295° |
| 2026-04-29 01:45 | 43.70229 | -71.38208 | 15963 ft | 276 kts | 295° |
| 2026-04-29 01:46 | 43.71096 | -71.40576 | 15961 ft | 276 kts | 294° |
| 2026-04-29 01:46 | 43.71962 | -71.42946 | 15959 ft | 276 kts | 294° |
| 2026-04-29 01:46 | 43.72826 | -71.45313 | 15960 ft | 276 kts | 294° |
| 2026-04-29 01:46 | 43.73694 | -71.47689 | 15955 ft | 276 kts | 294° |
| 2026-04-29 01:47 | 43.74558 | -71.50061 | 15953 ft | 276 kts | 294° |
| 2026-04-29 01:47 | 43.75424 | -71.52436 | 15951 ft | 276 kts | 294° |
| 2026-04-29 01:47 | 43.76287 | -71.54808 | 15947 ft | 276 kts | 294° |
| 2026-04-29 01:47 | 43.77152 | -71.57186 | 15945 ft | 277 kts | 294° |
| 2026-04-29 01:48 | 43.78016 | -71.59563 | 15941 ft | 277 kts | 294° |
| 2026-04-29 01:48 | 43.78879 | -71.61941 | 15931 ft | 276 kts | 294° |
| 2026-04-29 01:48 | 43.79744 | -71.64325 | 15932 ft | 276 kts | 294° |
| 2026-04-29 01:48 | 43.80607 | -71.66705 | 15926 ft | 277 kts | 294° |
| 2026-04-29 01:49 | 43.81471 | -71.69091 | 15922 ft | 277 kts | 294° |
| 2026-04-29 01:49 | 43.82323 | -71.71446 | 15918 ft | 277 kts | 294° |
| 2026-04-29 01:49 | 43.83186 | -71.73833 | 15906 ft | 277 kts | 294° |
| 2026-04-29 01:49 | 43.84050 | -71.76225 | 15900 ft | 278 kts | 294° |
| 2026-04-29 01:50 | 43.84913 | -71.78621 | 15895 ft | 278 kts | 294° |
| 2026-04-29 01:50 | 43.85777 | -71.81016 | 15892 ft | 278 kts | 294° |
| 2026-04-29 01:50 | 43.86640 | -71.83412 | 15887 ft | 277 kts | 294° |
| 2026-04-29 01:50 | 43.87503 | -71.85806 | 15895 ft | 277 kts | 294° |
| 2026-04-29 01:51 | 43.88363 | -71.88202 | 15878 ft | 278 kts | 294° |
| 2026-04-29 01:51 | 43.89225 | -71.90598 | 15878 ft | 277 kts | 294° |
| 2026-04-29 01:51 | 43.90085 | -71.92994 | 15873 ft | 277 kts | 294° |
| 2026-04-29 01:51 | 43.90944 | -71.95389 | 15875 ft | 277 kts | 294° |
| 2026-04-29 01:52 | 43.91794 | -71.97762 | 15867 ft | 277 kts | 293° |
| 2026-04-29 01:52 | 43.92652 | -72.00158 | 15866 ft | 277 kts | 293° |
| 2026-04-29 01:52 | 43.93509 | -72.02553 | 15860 ft | 277 kts | 293° |
| 2026-04-29 01:52 | 43.94367 | -72.04953 | 15861 ft | 277 kts | 293° |
| 2026-04-29 01:53 | 43.95224 | -72.07352 | 15858 ft | 277 kts | 293° |
| 2026-04-29 01:53 | 43.96079 | -72.09750 | 15860 ft | 277 kts | 293° |
| 2026-04-29 01:53 | 43.96934 | -72.12148 | 15855 ft | 277 kts | 293° |
| 2026-04-29 01:53 | 43.97789 | -72.14547 | 15852 ft | 277 kts | 293° |
| 2026-04-29 01:54 | 43.98639 | -72.16937 | 15853 ft | 276 kts | 293° |
| 2026-04-29 01:54 | 43.99490 | -72.19329 | 15861 ft | 276 kts | 294° |
| 2026-04-29 01:54 | 44.00466 | -72.21614 | 15871 ft | 278 kts | 310° |
| 2026-04-29 01:54 | 44.01975 | -72.23334 | 15867 ft | 282 kts | 319° |
| 2026-04-29 01:55 | 44.03422 | -72.25092 | 15870 ft | 278 kts | 309° |
| 2026-04-29 01:55 | 44.04694 | -72.27110 | 15870 ft | 277 kts | 307° |
| 2026-04-29 01:55 | 44.05953 | -72.29135 | 15872 ft | 277 kts | 310° |
| 2026-04-29 01:55 | 44.07315 | -72.31028 | 15878 ft | 276 kts | 310° |
| 2026-04-29 01:56 | 44.08626 | -72.32974 | 15880 ft | 275 kts | 309° |
| 2026-04-29 01:56 | 44.09949 | -72.34894 | 15885 ft | 275 kts | 311° |
| 2026-04-29 01:56 | 44.11273 | -72.36809 | 15888 ft | 274 kts | 310° |
| 2026-04-29 01:56 | 44.12587 | -72.38738 | 15892 ft | 274 kts | 310° |
| 2026-04-29 01:57 | 44.13908 | -72.40656 | 15889 ft | 274 kts | 310° |
| 2026-04-29 01:57 | 44.15222 | -72.42574 | 15890 ft | 273 kts | 310° |
| 2026-04-29 01:57 | 44.16532 | -72.44489 | 15886 ft | 272 kts | 310° |
| 2026-04-29 01:57 | 44.17824 | -72.46374 | 15896 ft | 272 kts | 310° |
| 2026-04-29 01:58 | 44.19131 | -72.48284 | 15889 ft | 272 kts | 310° |
| 2026-04-29 01:58 | 44.20438 | -72.50201 | 15891 ft | 271 kts | 310° |
| 2026-04-29 01:58 | 44.21739 | -72.52103 | 15899 ft | 271 kts | 310° |
| 2026-04-29 01:58 | 44.23037 | -72.54004 | 15895 ft | 270 kts | 310° |
| 2026-04-29 01:59 | 44.24331 | -72.55905 | 15892 ft | 270 kts | 310° |
| 2026-04-29 01:59 | 44.25624 | -72.57798 | 15894 ft | 269 kts | 310° |
| 2026-04-29 01:59 | 44.26911 | -72.59689 | 15899 ft | 268 kts | 310° |
| 2026-04-29 01:59 | 44.28192 | -72.61572 | 15896 ft | 268 kts | 310° |
| 2026-04-29 02:00 | 44.29490 | -72.63471 | 15572 ft | 278 kts | 310° |
| 2026-04-29 02:00 | 44.30821 | -72.65425 | 15188 ft | 276 kts | 310° |
| 2026-04-29 02:00 | 44.32132 | -72.67368 | 14821 ft | 275 kts | 309° |
| 2026-04-29 02:00 | 44.33445 | -72.69304 | 14481 ft | 274 kts | 311° |
| 2026-04-29 02:01 | 44.34752 | -72.71235 | 14116 ft | 273 kts | 310° |
| 2026-04-29 02:01 | 44.36065 | -72.73157 | 13687 ft | 272 kts | 309° |
| 2026-04-29 02:01 | 44.36931 | -72.74427 | 13422 ft | 273 kts | 309° |
| 2026-04-29 02:01 | 44.38665 | -72.77023 | 12892 ft | 273 kts | 310° |
| 2026-04-29 02:02 | 44.39968 | -72.78922 | 12493 ft | 274 kts | 310° |
| 2026-04-29 02:02 | 44.41272 | -72.80857 | 12115 ft | 274 kts | 308° |
| 2026-04-29 02:02 | 44.42576 | -72.82800 | 11726 ft | 274 kts | 310° |
| 2026-04-29 02:02 | 44.43896 | -72.84739 | 11363 ft | 274 kts | 309° |
| 2026-04-29 02:03 | 44.44763 | -72.86028 | 11151 ft | 274 kts | 309° |
| 2026-04-29 02:03 | 44.46067 | -72.87962 | 10959 ft | 270 kts | 309° |
| 2026-04-29 02:03 | 44.47338 | -72.89854 | 10870 ft | 263 kts | 309° |
| 2026-04-29 02:03 | 44.48599 | -72.91738 | 10836 ft | 268 kts | 309° |
| 2026-04-29 02:04 | 44.49894 | -72.93644 | 10815 ft | 271 kts | 309° |
| 2026-04-29 02:04 | 44.51191 | -72.95569 | 10798 ft | 272 kts | 309° |
| 2026-04-29 02:04 | 44.52486 | -72.97510 | 10800 ft | 273 kts | 310° |
| 2026-04-29 02:04 | 44.53796 | -72.99445 | 10795 ft | 273 kts | 309° |
| 2026-04-29 02:05 | 44.55094 | -73.01398 | 10786 ft | 274 kts | 309° |
| 2026-04-29 02:05 | 44.56403 | -73.03333 | 10785 ft | 273 kts | 309° |
| 2026-04-29 02:05 | 44.57684 | -73.05252 | 10786 ft | 273 kts | 309° |
| 2026-04-29 02:05 | 44.58979 | -73.07195 | 10792 ft | 272 kts | 309° |
| 2026-04-29 02:06 | 44.60282 | -73.09131 | 10789 ft | 272 kts | 309° |
| 2026-04-29 02:06 | 44.61573 | -73.11053 | 10792 ft | 263 kts | 309° |
| 2026-04-29 02:06 | 44.62781 | -73.12871 | 10783 ft | 247 kts | 308° |
| 2026-04-29 02:06 | 44.63943 | -73.14634 | 10530 ft | 243 kts | 309° |
| 2026-04-29 02:07 | 44.65097 | -73.16341 | 10287 ft | 238 kts | 308° |
| 2026-04-29 02:07 | 44.66228 | -73.18044 | 9942 ft | 236 kts | 308° |
| 2026-04-29 02:07 | 44.67335 | -73.19698 | 9514 ft | 229 kts | 308° |
| 2026-04-29 02:07 | 44.68419 | -73.21317 | 9092 ft | 226 kts | 311° |
| 2026-04-29 02:08 | 44.69617 | -73.22780 | 8508 ft | 233 kts | 321° |
| 2026-04-29 02:08 | 44.70884 | -73.24207 | 7802 ft | 233 kts | 303° |
| 2026-04-29 02:08 | 44.71368 | -73.26297 | 7145 ft | 223 kts | 261° |
| 2026-04-29 02:08 | 44.70752 | -73.28123 | 6769 ft | 203 kts | 218° |
| 2026-04-29 02:09 | 44.69494 | -73.28787 | 6561 ft | 189 kts | 191° |
| 2026-04-29 02:09 | 44.68253 | -73.29058 | 6456 ft | 178 kts | 187° |
| 2026-04-29 02:09 | 44.67049 | -73.29265 | 6405 ft | 170 kts | 192° |
| 2026-04-29 02:09 | 44.65998 | -73.29919 | 6380 ft | 165 kts | 221° |
| 2026-04-29 02:10 | 44.65390 | -73.31288 | 6377 ft | 163 kts | 232° |
| 2026-04-29 02:10 | 44.64745 | -73.32569 | 6251 ft | 163 kts | 225° |
| 2026-04-29 02:10 | 44.63950 | -73.33750 | 5814 ft | 169 kts | 219° |
| 2026-04-29 02:10 | 44.63067 | -73.34835 | 5385 ft | 168 kts | 211° |
| 2026-04-29 02:11 | 44.61975 | -73.35105 | 4987 ft | 168 kts | 163° |
| 2026-04-29 02:11 | 44.60935 | -73.34301 | 4535 ft | 172 kts | 154° |
| 2026-04-29 02:11 | 44.59931 | -73.33367 | 4084 ft | 174 kts | 151° |
| 2026-04-29 02:11 | 44.58951 | -73.32365 | 3616 ft | 175 kts | 149° |
| 2026-04-29 02:12 | 44.57949 | -73.31337 | 3167 ft | 175 kts | 147° |
| 2026-04-29 02:12 | 44.57006 | -73.30313 | 2906 ft | 166 kts | 145° |
| 2026-04-29 02:12 | 44.56174 | -73.29317 | 2694 ft | 152 kts | 144° |
| 2026-04-29 02:12 | 44.55416 | -73.28366 | 2496 ft | 140 kts | 143° |
| 2026-04-29 02:13 | 44.54784 | -73.27520 | 2337 ft | 115 kts | 140° |
| 2026-04-29 02:13 | 44.54236 | -73.26652 | 2173 ft | 122 kts | 137° |
| 2026-04-29 02:13 | 44.53674 | -73.25711 | 2013 ft | 129 kts | 135° |
| 2026-04-29 02:13 | 44.53085 | -73.24735 | 1841 ft | 133 kts | 134° |
| 2026-04-29 02:14 | 44.52482 | -73.23742 | 1661 ft | 134 kts | 134° |
| 2026-04-29 02:14 | 44.51858 | -73.22733 | 1473 ft | 142 kts | 133° |
| 2026-04-29 02:14 | 44.51198 | -73.21641 | 1280 ft | 150 kts | 132° |
| 2026-04-29 02:14 | 44.50498 | -73.20533 | 1063 ft | 152 kts | 133° |
| 2026-04-29 02:15 | 44.49845 | -73.19462 | 857 ft | 127 kts | 133° |
| 2026-04-29 02:15 | 44.49349 | -73.18641 | 720 ft | 97 kts | 134° |
| 2026-04-29 02:15 | 44.48913 | -73.17951 | 604 ft | 100 kts | 131° |
| 2026-04-29 02:15 | 44.48431 | -73.17159 | 476 ft | 105 kts | 135° |
| 2026-04-29 02:16 | 44.47969 | -73.16419 | 339 ft | 93 kts | 135° |
| 2026-04-29 02:16 | 44.47585 | -73.15812 | 324 ft | 66 kts | 132° |
| 2026-04-29 02:16 | 44.47432 | -73.15564 | 332 ft | 18 kts | 129° |
| 2026-04-29 02:16 | 44.47352 | -73.15437 | 332 ft | 17 kts | 137° |
| 2026-04-29 02:17 | 44.47289 | -73.15402 | 334 ft | 8 kts | 173° |
| 2026-04-29 02:17 | 44.47220 | -73.15388 | 334 ft | 12 kts | 171° |
| 2026-04-29 02:17 | 44.47109 | -73.15366 | 334 ft | 21 kts | 174° |
| 2026-04-29 02:17 | 44.46954 | -73.15334 | 335 ft | 24 kts | 173° |
| 2026-04-29 02:18 | 44.46802 | -73.15307 | 336 ft | 21 kts | 168° |
| 2026-04-29 02:18 | 44.46651 | -73.15269 | 336 ft | 21 kts | 170° |
| 2026-04-29 02:18 | 44.46592 | -73.15254 | 334 ft | 1 kts | 167° |
| 2026-04-29 02:18 | 44.46587 | -73.15239 | 335 ft | 5 kts | 82° |
| 2026-04-29 02:19 | 44.46592 | -73.15059 | 337 ft | 20 kts | 90° |
| 2026-04-29 02:19 | 44.46597 | -73.14881 | 333 ft | 19 kts | 86° |
| 2026-04-29 02:19 | 44.46578 | -73.14718 | 337 ft | 11 kts | 121° |
| 2026-04-29 02:19 | 44.46542 | -73.14703 | 336 ft | 7 kts | 196° |
| 2026-04-29 02:20 | 44.46507 | -73.14706 | 336 ft | 6 kts | 224° |
| 2026-04-29 02:20 | 44.46504 | -73.14713 | 339 ft | 0 kts | 257° |